Time;durP1;ratioP1;P1;durP2;ratioP2;P2;SDS_P1;SDS_P2;PMS_P1;PMS_P2;Temp;Humidity;BMP_temperature;BMP_pressure;BME280_temperature;BME280_humidity;BME280_pressure;Samples;Min_cycle;Max_cycle;Signal;HPM_P1;HPM_P2
2023/10/31 00:00:45;;;;;;;11.15;5.15;;;10.50;99.90;;;;;;5056241;28;20043;-36
2023/10/31 00:03:10;;;;;;;8.77;4.07;;;10.50;99.90;;;;;;5056202;28;20112;-37
2023/10/31 00:05:36;;;;;;;16.27;5.03;;;10.60;99.90;;;;;;5056186;28;20679;-35
2023/10/31 00:08:02;;;;;;;9.73;3.92;;;10.60;99.90;;;;;;5056192;28;20025;-37
2023/10/31 00:10:27;;;;;;;9.35;4.22;;;10.60;99.90;;;;;;5055988;28;20032;-36
2023/10/31 00:12:53;;;;;;;11.50;5.05;;;10.60;99.90;;;;;;5056295;28;20437;-37
2023/10/31 00:15:19;;;;;;;9.80;4.30;;;10.60;99.90;;;;;;5038643;28;20021;-36
2023/10/31 00:17:45;;;;;;;11.57;4.80;;;10.70;99.90;;;;;;5055983;28;20021;-37
2023/10/31 00:20:10;;;;;;;10.75;4.53;;;10.70;99.90;;;;;;5055895;28;20029;-36
2023/10/31 00:22:36;;;;;;;14.20;4.78;;;10.70;99.90;;;;;;5055900;28;20094;-38
2023/10/31 00:25:01;;;;;;;10.00;4.93;;;10.70;99.90;;;;;;5038101;28;20445;-36
2023/10/31 00:27:27;;;;;;;11.93;5.28;;;10.80;99.90;;;;;;5055809;28;20075;-36
2023/10/31 00:29:53;;;;;;;8.90;4.80;;;10.80;99.90;;;;;;5037881;28;20484;-36
2023/10/31 00:32:18;;;;;;;10.05;5.18;;;10.80;99.90;;;;;;5038039;28;20021;-36
2023/10/31 00:34:44;;;;;;;10.65;4.93;;;10.90;99.90;;;;;;5055627;28;20048;-37
2023/10/31 00:37:10;;;;;;;17.45;4.28;;;10.90;99.90;;;;;;5055671;28;20377;-37
2023/10/31 00:39:35;;;;;;;9.15;4.93;;;10.90;99.90;;;;;;5055637;28;20053;-36
2023/10/31 00:42:01;;;;;;;10.15;4.68;;;10.90;99.90;;;;;;5055375;28;20041;-38
2023/10/31 00:44:26;;;;;;;7.78;4.28;;;11.00;99.90;;;;;;5055458;28;20028;-36
2023/10/31 00:46:52;;;;;;;6.18;3.72;;;11.00;99.90;;;;;;5055436;28;20031;-37
2023/10/31 00:49:18;;;;;;;6.13;3.15;;;10.90;99.90;;;;;;5055661;28;20481;-36
2023/10/31 00:51:43;;;;;;;4.53;2.60;;;11.00;99.90;;;;;;5055323;28;20029;-37
2023/10/31 00:54:09;;;;;;;3.40;2.75;;;10.90;99.90;;;;;;5054781;28;20024;-36
2023/10/31 00:56:35;;;;;;;2.83;1.88;;;11.00;99.90;;;;;;5055280;28;20025;-36
2023/10/31 00:59:00;;;;;;;5.63;1.52;;;11.00;99.90;;;;;;5055244;28;20048;-36
2023/10/31 01:01:26;;;;;;;6.10;1.63;;;11.00;99.90;;;;;;5055242;28;20028;-36
2023/10/31 01:03:52;;;;;;;7.82;2.20;;;10.90;99.90;;;;;;5055454;28;20028;-35
2023/10/31 01:06:17;;;;;;;5.93;1.00;;;10.90;99.90;;;;;;5055414;28;20492;-36
2023/10/31 01:08:43;;;;;;;5.38;1.40;;;10.90;99.90;;;;;;5055032;28;20393;-36
2023/10/31 01:11:08;;;;;;;5.30;1.50;;;10.90;99.90;;;;;;5054895;28;20384;-36
2023/10/31 01:30:24;;;;;;;13.02;4.85;;;10.90;99.90;;;;;;5054722;28;20040;-36
2023/10/31 01:32:50;;;;;;;10.80;5.45;;;10.90;99.90;;;;;;5054323;28;20029;-36
2023/10/31 01:35:15;;;;;;;16.20;6.22;;;10.90;99.90;;;;;;5036640;28;20021;-36
2023/10/31 01:37:41;;;;;;;10.95;4.43;;;10.90;99.90;;;;;;5054286;28;20100;-36
2023/10/31 01:40:07;;;;;;;12.18;5.88;;;10.90;99.90;;;;;;5054636;28;20445;-37
2023/10/31 01:42:33;;;;;;;16.02;6.70;;;10.90;99.90;;;;;;5054284;28;20083;-36
2023/10/31 01:44:59;;;;;;;15.68;6.22;;;10.90;99.90;;;;;;5054393;28;20025;-36
2023/10/31 01:47:24;;;;;;;12.95;7.28;;;11.00;99.90;;;;;;5054555;28;20071;-37
2023/10/31 01:49:51;;;;;;;14.65;6.63;;;11.00;99.90;;;;;;5054319;28;20056;-37
2023/10/31 01:52:17;;;;;;;14.07;6.20;;;10.90;99.90;;;;;;5054239;28;20025;-37
2023/10/31 01:54:44;;;;;;;17.55;6.07;;;10.90;99.90;;;;;;5054104;28;20496;-36
2023/10/31 01:57:10;;;;;;;17.17;5.38;;;10.90;99.90;;;;;;5054056;28;20029;-36
2023/10/31 01:59:36;;;;;;;11.90;4.88;;;11.00;99.90;;;;;;5054061;28;20025;-35
2023/10/31 02:02:03;;;;;;;12.80;4.75;;;11.00;99.90;;;;;;5054099;28;20104;-36
2023/10/31 02:04:29;;;;;;;12.70;4.60;;;11.00;99.90;;;;;;5052788;28;20029;-35
2023/10/31 02:06:55;;;;;;;10.35;4.38;;;11.00;99.90;;;;;;5034308;28;20112;-37
2023/10/31 02:09:24;;;;;;;12.50;4.05;;;11.00;99.90;;;;;;5053747;28;20033;-36
2023/10/31 02:11:50;;;;;;;6.80;3.55;;;11.00;99.90;;;;;;5036733;28;20525;-35
2023/10/31 02:14:15;;;;;;;12.77;4.68;;;11.00;99.90;;;;;;5053815;28;20061;-36
2023/10/31 02:16:41;;;;;;;10.18;4.10;;;11.00;99.90;;;;;;5053727;28;20047;-38
2023/10/31 02:19:07;;;;;;;8.77;4.25;;;11.00;99.90;;;;;;5035957;28;20017;-37
2023/10/31 02:21:33;;;;;;;12.13;4.00;;;11.10;99.90;;;;;;5053615;28;20033;-36
2023/10/31 02:24:00;;;;;;;11.07;4.10;;;11.00;99.90;;;;;;5053618;28;20531;-36
2023/10/31 02:26:33;;;;;;;9.55;4.75;;;11.00;99.90;;;;;;5053858;28;20067;-36
2023/10/31 02:28:59;;;;;;;11.02;5.15;;;11.00;99.90;;;;;;5053825;28;20543;-37
2023/10/31 02:31:26;;;;;;;12.27;4.38;;;11.00;99.90;;;;;;5053458;28;20481;-37
2023/10/31 02:33:52;;;;;;;11.18;6.07;;;11.00;99.90;;;;;;5053571;28;20024;-37
2023/10/31 02:36:18;;;;;;;9.52;5.80;;;11.00;99.90;;;;;;5053412;28;20024;-34
2023/10/31 02:38:45;;;;;;;18.67;5.95;;;11.00;99.90;;;;;;5053459;28;20469;-34
2023/10/31 02:41:11;;;;;;;9.10;5.30;;;11.00;99.90;;;;;;5019564;28;20029;-35
2023/10/31 02:43:38;;;;;;;12.43;4.97;;;11.10;99.90;;;;;;5019232;28;20041;-34
2023/10/31 02:46:04;;;;;;;9.52;5.40;;;11.00;99.90;;;;;;5053422;28;20025;-34
2023/10/31 02:48:37;;;;;;;10.32;5.05;;;11.10;99.90;;;;;;5053148;28;20370;-34
2023/10/31 02:51:09;;;;;;;6.95;4.18;;;11.10;99.90;;;;;;5053124;28;20025;-35
2023/10/31 02:53:53;;;;;;;11.15;4.35;;;11.00;99.90;;;;;;5053102;28;20093;-36
2023/10/31 02:56:19;;;;;;;6.65;3.60;;;11.00;99.90;;;;;;5053052;28;20033;-35
2023/10/31 02:58:45;;;;;;;5.28;3.28;;;11.00;99.90;;;;;;5035161;28;20438;-41
2023/10/31 03:01:11;;;;;;;4.43;2.60;;;11.00;99.90;;;;;;5052937;28;20025;-35
2023/10/31 03:03:37;;;;;;;3.85;2.80;;;11.00;99.90;;;;;;5053006;28;20036;-34
2023/10/31 03:06:04;;;;;;;6.53;2.58;;;11.00;99.90;;;;;;5053177;28;20072;-34
2023/10/31 03:08:29;;;;;;;1.92;1.50;;;10.90;99.90;;;;;;5053193;28;20485;-36
2023/10/31 03:10:55;;;;;;;5.57;1.30;;;11.00;99.90;;;;;;5052772;28;20108;-34
2023/10/31 03:13:21;;;;;;;2.13;0.90;;;11.00;99.90;;;;;;5052825;28;20496;-34
2023/10/31 03:15:47;;;;;;;7.22;1.10;;;10.90;99.90;;;;;;5052920;28;20109;-36
2023/10/31 03:18:14;;;;;;;2.90;0.60;;;10.90;99.90;;;;;;5052834;28;20047;-36
2023/10/31 03:20:40;;;;;;;0.53;0.40;;;10.90;99.90;;;;;;5052712;28;20037;-35
2023/10/31 03:23:05;;;;;;;1.27;0.75;;;10.90;99.90;;;;;;5052707;28;20272;-35
2023/10/31 03:25:31;;;;;;;3.67;0.70;;;10.90;99.90;;;;;;5034835;28;20475;-35
2023/10/31 03:27:57;;;;;;;3.15;0.98;;;10.90;99.90;;;;;;5052954;28;20044;-48
2023/10/31 03:30:22;;;;;;;4.22;1.20;;;10.90;99.90;;;;;;5052755;28;20029;-36
2023/10/31 03:32:48;;;;;;;2.55;1.20;;;10.80;99.90;;;;;;5052578;28;20029;-35
2023/10/31 03:35:14;;;;;;;5.30;1.13;;;10.80;99.90;;;;;;5052588;28;20029;-35
2023/10/31 03:37:41;;;;;;;1.85;1.02;;;10.80;99.90;;;;;;5052396;28;20539;-35
2023/10/31 03:40:08;;;;;;;1.92;1.15;;;10.90;99.90;;;;;;5052599;28;20438;-35
2023/10/31 03:42:34;;;;;;;3.25;1.30;;;10.90;99.90;;;;;;5052374;28;20444;-36
2023/10/31 03:45:00;;;;;;;2.78;0.90;;;10.80;99.90;;;;;;5052520;28;20029;-36
2023/10/31 03:47:25;;;;;;;2.67;1.20;;;10.80;99.90;;;;;;5034687;28;20374;-36
2023/10/31 03:49:51;;;;;;;4.88;1.20;;;10.80;99.90;;;;;;5052515;28;20440;-36
2023/10/31 03:52:17;;;;;;;4.38;1.13;;;10.80;99.90;;;;;;5052346;28;20036;-35
2023/10/31 03:54:42;;;;;;;3.03;0.95;;;10.80;99.90;;;;;;5052588;28;20029;-34
2023/10/31 03:57:08;;;;;;;1.75;0.95;;;10.70;99.90;;;;;;5052441;28;20029;-35
2023/10/31 03:59:33;;;;;;;2.58;1.40;;;10.70;99.90;;;;;;5052385;28;20029;-34
2023/10/31 04:01:59;;;;;;;3.53;1.58;;;10.70;99.90;;;;;;5052410;28;20478;-34
2023/10/31 04:04:24;;;;;;;5.78;1.25;;;10.70;99.90;;;;;;5052352;28;20032;-34
2023/10/31 04:06:50;;;;;;;3.35;1.45;;;10.60;99.90;;;;;;5052334;28;20025;-35
2023/10/31 04:09:16;;;;;;;1.30;1.15;;;10.70;99.90;;;;;;5052255;28;20477;-35
2023/10/31 04:11:43;;;;;;;4.50;1.15;;;10.70;99.90;;;;;;5052417;28;20428;-35
2023/10/31 04:14:08;;;;;;;2.50;0.50;;;10.70;99.90;;;;;;5052489;28;20437;-38
2023/10/31 04:16:45;;;;;;;3.67;0.52;;;10.70;99.90;;;;;;5052210;28;20061;-35
2023/10/31 04:19:14;;;;;;;1.08;0.35;;;10.70;99.90;;;;;;5052274;28;20021;-35
2023/10/31 04:21:40;;;;;;;0.65;0.30;;;10.70;99.90;;;;;;5052172;28;20446;-35
2023/10/31 04:24:06;;;;;;;0.52;0.10;;;10.70;99.90;;;;;;5034248;28;20060;-36
2023/10/31 04:26:31;;;;;;;3.55;0.28;;;10.70;99.90;;;;;;5052119;28;20104;-34
2023/10/31 04:28:57;;;;;;;0.52;0.22;;;10.60;99.90;;;;;;5055009;28;20025;-36
2023/10/31 04:31:22;;;;;;;3.50;0.20;;;10.50;99.90;;;;;;5055690;28;20489;-35
2023/10/31 04:33:48;;;;;;;0.68;0.30;;;10.50;99.90;;;;;;5037856;28;20029;-35
2023/10/31 04:36:14;;;;;;;0.85;0.38;;;10.50;99.90;;;;;;5055716;28;20447;-34
2023/10/31 04:38:39;;;;;;;0.73;0.63;;;10.50;99.90;;;;;;5038016;28;20092;-35
2023/10/31 04:41:05;;;;;;;0.98;0.77;;;10.60;99.90;;;;;;5035708;28;20065;-35
2023/10/31 04:43:30;;;;;;;0.77;0.60;;;10.60;99.90;;;;;;5035486;28;20136;-35
2023/10/31 04:45:56;;;;;;;0.60;0.60;;;10.60;99.90;;;;;;5035603;28;20036;-35
2023/10/31 04:48:22;;;;;;;5.72;0.70;;;10.60;99.90;;;;;;5035534;28;20508;-34
2023/10/31 04:50:47;;;;;;;1.85;0.85;;;10.70;99.90;;;;;;5035483;28;20060;-35
2023/10/31 04:53:13;;;;;;;1.77;0.98;;;10.70;99.90;;;;;;5050617;28;20507;-34
2023/10/31 04:55:38;;;;;;;1.90;0.90;;;10.60;99.90;;;;;;5035424;28;20392;-35
2023/10/31 04:58:04;;;;;;;1.88;0.88;;;10.70;99.90;;;;;;5050604;28;20386;-35
2023/10/31 05:00:30;;;;;;;6.15;1.27;;;10.70;99.90;;;;;;5035146;28;20371;-36
2023/10/31 05:02:56;;;;;;;1.33;1.13;;;10.70;99.90;;;;;;5035189;28;20465;-34
2023/10/31 05:05:22;;;;;;;1.38;1.25;;;10.70;99.90;;;;;;5035049;28;20029;-35
2023/10/31 05:07:48;;;;;;;2.30;0.93;;;10.70;99.90;;;;;;5034954;28;20553;-34
2023/10/31 05:10:13;;;;;;;3.63;1.80;;;10.70;99.90;;;;;;5034937;28;20029;-34
2023/10/31 05:12:39;;;;;;;5.68;1.52;;;10.70;99.90;;;;;;5034900;28;20033;-35
2023/10/31 05:15:05;;;;;;;2.30;1.05;;;10.70;99.90;;;;;;5035055;28;20508;-34
2023/10/31 05:17:31;;;;;;;6.30;1.85;;;10.70;99.90;;;;;;5034851;28;20112;-34
2023/10/31 05:19:57;;;;;;;1.95;1.13;;;10.70;99.90;;;;;;5034910;28;20063;-34
2023/10/31 05:22:22;;;;;;;1.63;1.40;;;10.70;99.90;;;;;;5050215;28;20025;-35
2023/10/31 05:24:48;;;;;;;1.50;1.08;;;10.70;99.90;;;;;;5035092;28;20057;-35
2023/10/31 05:27:14;;;;;;;1.52;1.40;;;10.60;99.90;;;;;;5034884;28;20064;-35
2023/10/31 05:29:40;;;;;;;3.03;1.15;;;10.70;99.90;;;;;;5034959;28;20094;-37
2023/10/31 05:32:06;;;;;;;1.25;1.10;;;10.70;99.90;;;;;;5034616;28;20029;-35
2023/10/31 05:34:31;;;;;;;6.18;1.52;;;10.60;99.90;;;;;;5034679;28;20379;-33
2023/10/31 05:36:57;;;;;;;2.05;1.80;;;10.70;99.90;;;;;;5034508;28;20017;-35
2023/10/31 05:39:23;;;;;;;7.78;2.28;;;10.60;99.90;;;;;;5033573;28;20074;-35
2023/10/31 05:42:07;;;;;;;7.13;3.08;;;10.70;99.90;;;;;;5034516;28;20029;-35
2023/10/31 05:44:33;;;;;;;7.22;3.53;;;10.60;99.90;;;;;;5034493;28;20587;-36
2023/10/31 05:46:59;;;;;;;7.20;3.55;;;10.60;99.90;;;;;;5049813;28;20068;-34
2023/10/31 05:49:25;;;;;;;9.07;3.38;;;10.60;99.90;;;;;;5034623;28;20064;-35
2023/10/31 05:51:51;;;;;;;7.65;3.53;;;10.60;99.90;;;;;;5034247;28;20481;-35
2023/10/31 05:54:18;;;;;;;7.90;3.45;;;10.60;99.90;;;;;;5034227;28;20025;-34
2023/10/31 05:56:44;;;;;;;7.45;3.30;;;10.60;99.90;;;;;;5034192;28;20017;-36
2023/10/31 05:59:11;;;;;;;6.55;2.25;;;10.60;99.90;;;;;;5034181;28;20107;-35
2023/10/31 06:01:37;;;;;;;3.25;2.30;;;10.60;99.90;;;;;;5034112;28;20032;-35
2023/10/31 06:04:03;;;;;;;2.28;1.83;;;10.50;99.90;;;;;;5049794;28;20033;-35
2023/10/31 06:06:32;;;;;;;4.10;1.90;;;10.50;99.90;;;;;;5034086;28;20508;-35
2023/10/31 06:08:58;;;;;;;2.50;1.55;;;10.60;99.90;;;;;;5033998;28;20538;-35
2023/10/31 06:11:24;;;;;;;3.47;1.25;;;10.50;99.90;;;;;;5033871;28;20105;-36
2023/10/31 06:13:49;;;;;;;2.15;0.98;;;10.50;99.90;;;;;;5033845;28;20018;-34
2023/10/31 06:16:15;;;;;;;0.68;0.60;;;10.50;99.90;;;;;;5049113;28;20075;-35
2023/10/31 06:18:41;;;;;;;0.70;0.70;;;10.50;99.90;;;;;;5033825;28;20089;-36
2023/10/31 06:21:08;;;;;;;1.48;0.60;;;10.50;99.90;;;;;;5033633;28;20032;-35
2023/10/31 06:23:36;;;;;;;1.90;1.13;;;10.50;99.90;;;;;;5049149;28;20504;-38
2023/10/31 06:26:01;;;;;;;3.83;0.75;;;10.50;99.90;;;;;;5049384;28;20021;-35
2023/10/31 06:28:27;;;;;;;1.45;0.60;;;10.50;99.90;;;;;;5033661;28;20033;-34
2023/10/31 06:30:53;;;;;;;1.50;0.60;;;10.50;99.90;;;;;;5033510;28;20025;-35
2023/10/31 06:33:18;;;;;;;1.98;0.52;;;10.50;99.90;;;;;;5033789;28;20017;-35
2023/10/31 06:35:44;;;;;;;0.47;0.38;;;10.50;99.90;;;;;;5033505;28;20108;-35
2023/10/31 06:38:09;;;;;;;3.83;0.60;;;10.50;99.90;;;;;;5033598;28;20381;-35
2023/10/31 06:40:35;;;;;;;0.32;0.30;;;10.50;99.90;;;;;;5033645;28;20024;-37
2023/10/31 06:43:01;;;;;;;3.05;0.55;;;10.50;99.90;;;;;;5045252;28;20499;-37
2023/10/31 06:45:27;;;;;;;3.28;0.50;;;10.50;99.90;;;;;;5013666;28;20363;-37
2023/10/31 06:47:53;;;;;;;2.13;0.80;;;10.40;99.90;;;;;;5013894;28;20024;-36
2023/10/31 06:50:19;;;;;;;0.60;0.50;;;10.40;99.90;;;;;;5013202;28;20026;-36
2023/10/31 06:52:44;;;;;;;0.98;0.88;;;10.40;99.90;;;;;;5013472;28;20085;-36
2023/10/31 06:55:10;;;;;;;4.60;0.60;;;10.40;99.90;;;;;;5013401;28;20390;-36
2023/10/31 06:57:36;;;;;;;0.70;0.35;;;10.50;99.90;;;;;;5013415;28;20052;-36
2023/10/31 07:00:03;;;;;;;2.97;0.82;;;10.40;99.90;;;;;;5013413;28;20018;-38
2023/10/31 07:02:28;;;;;;;0.65;0.50;;;10.50;99.90;;;;;;5013608;28;20032;-37
2023/10/31 07:04:54;;;;;;;0.80;0.47;;;10.50;99.90;;;;;;5013607;28;20021;-36
2023/10/31 07:07:20;;;;;;;0.75;0.50;;;10.60;99.90;;;;;;5045087;28;20572;-37
2023/10/31 07:09:45;;;;;;;0.90;0.60;;;10.60;99.90;;;;;;5013280;28;20060;-36
2023/10/31 07:12:11;;;;;;;2.20;0.75;;;10.70;99.90;;;;;;5013357;28;20034;-36
2023/10/31 07:14:37;;;;;;;0.52;0.52;;;10.70;99.90;;;;;;5013178;28;20029;-36
2023/10/31 07:17:03;;;;;;;0.63;0.55;;;10.70;99.90;;;;;;5013147;28;20029;-37
2023/10/31 07:19:28;;;;;;;1.05;0.55;;;10.80;99.90;;;;;;5013128;28;20030;-34
2023/10/31 07:21:54;;;;;;;1.67;0.55;;;10.80;99.90;;;;;;5013133;28;20026;-35
2023/10/31 07:24:20;;;;;;;2.65;0.80;;;10.80;99.90;;;;;;5011858;28;20482;-35
2023/10/31 07:26:45;;;;;;;1.75;0.50;;;10.80;99.90;;;;;;5013052;28;20025;-34
2023/10/31 07:29:12;;;;;;;0.63;0.63;;;10.80;99.90;;;;;;5012992;28;20449;-35
2023/10/31 07:31:38;;;;;;;4.03;0.82;;;10.80;99.90;;;;;;5044700;28;20487;-35
2023/10/31 07:34:05;;;;;;;0.73;0.73;;;10.90;99.90;;;;;;5012889;28;20022;-38
2023/10/31 07:36:32;;;;;;;3.33;1.10;;;10.90;99.90;;;;;;5012962;28;20018;-35
2023/10/31 07:38:58;;;;;;;0.93;0.70;;;10.90;99.90;;;;;;5013216;28;20018;-35
2023/10/31 07:41:24;;;;;;;2.13;1.10;;;10.90;99.90;;;;;;5013565;28;20096;-36
2023/10/31 07:43:50;;;;;;;4.20;1.08;;;11.00;99.90;;;;;;5032917;28;20401;-36
2023/10/31 07:46:15;;;;;;;3.67;1.38;;;11.00;99.90;;;;;;5032636;28;20104;-36
2023/10/31 07:48:41;;;;;;;3.00;1.00;;;11.00;99.90;;;;;;5032562;28;20033;-37
2023/10/31 07:51:07;;;;;;;1.45;1.20;;;11.00;99.90;;;;;;5032501;28;20026;-36
2023/10/31 07:53:32;;;;;;;1.52;1.20;;;11.10;99.90;;;;;;5032429;28;20025;-36
2023/10/31 07:55:58;;;;;;;1.73;1.52;;;11.10;99.90;;;;;;5014824;28;20053;-36
2023/10/31 07:58:23;;;;;;;3.58;1.33;;;11.20;99.90;;;;;;5032457;28;20068;-36
2023/10/31 08:00:49;;;;;;;2.63;1.52;;;11.20;99.90;;;;;;5032764;28;20482;-35
2023/10/31 08:03:15;;;;;;;2.40;1.25;;;11.30;99.90;;;;;;5034405;28;20024;-35
2023/10/31 08:05:40;;;;;;;3.22;1.70;;;11.30;99.90;;;;;;5036280;28;20124;-36
2023/10/31 08:08:06;;;;;;;2.88;1.50;;;11.30;99.90;;;;;;5036244;28;20084;-35
2023/10/31 08:10:34;;;;;;;5.45;1.70;;;11.30;99.90;;;;;;5051518;28;20481;-37
2023/10/31 08:12:59;;;;;;;4.97;1.73;;;11.40;99.90;;;;;;5036152;28;20034;-35
2023/10/31 08:15:25;;;;;;;3.42;1.48;;;11.40;99.90;;;;;;5018575;28;20367;-36
2023/10/31 08:17:51;;;;;;;2.17;1.58;;;11.40;99.90;;;;;;5035900;28;20029;-37
2023/10/31 08:20:16;;;;;;;3.53;1.50;;;11.40;99.90;;;;;;5036036;28;20072;-38
2023/10/31 08:22:42;;;;;;;8.23;2.17;;;11.40;99.90;;;;;;5036152;28;20112;-39
2023/10/31 08:25:09;;;;;;;7.15;1.73;;;11.50;99.90;;;;;;5036072;28;20432;-38
2023/10/31 08:27:34;;;;;;;5.40;1.70;;;11.50;99.90;;;;;;5036010;28;20032;-37
2023/10/31 08:30:00;;;;;;;4.90;2.45;;;11.60;99.90;;;;;;5035942;28;20477;-42
2023/10/31 08:32:26;;;;;;;3.10;1.50;;;11.70;99.90;;;;;;5035826;28;20021;-37
2023/10/31 08:34:51;;;;;;;4.75;2.30;;;11.70;99.90;;;;;;5035785;28;20504;-37
2023/10/31 08:37:17;;;;;;;2.60;1.85;;;11.80;99.90;;;;;;5035645;28;20100;-37
2023/10/31 08:39:43;;;;;;;5.68;1.85;;;11.80;99.90;;;;;;5035698;28;20017;-38
2023/10/31 08:42:09;;;;;;;6.60;2.40;;;11.90;99.90;;;;;;5050883;28;20057;-37
2023/10/31 08:44:37;;;;;;;8.52;2.90;;;11.90;99.90;;;;;;5035516;28;20397;-38
2023/10/31 08:47:03;;;;;;;2.65;2.13;;;11.90;99.90;;;;;;5035546;28;20021;-38
2023/10/31 08:49:29;;;;;;;5.30;2.38;;;12.00;99.90;;;;;;5035523;28;20569;-37
2023/10/31 08:51:54;;;;;;;5.72;2.20;;;12.00;99.90;;;;;;5035397;28;20033;-37
2023/10/31 08:54:20;;;;;;;11.30;2.70;;;12.10;99.90;;;;;;5035315;28;20098;-37
2023/10/31 08:56:46;;;;;;;8.40;2.47;;;12.10;99.90;;;;;;5035395;28;20091;-37
2023/10/31 08:59:11;;;;;;;5.85;2.58;;;12.20;99.90;;;;;;5035563;28;20071;-40
2023/10/31 09:01:37;;;;;;;4.55;2.88;;;12.20;99.90;;;;;;5035283;28;20025;-36
2023/10/31 09:04:03;;;;;;;10.07;3.30;;;12.20;99.90;;;;;;5035523;28;20043;-36
2023/10/31 09:06:29;;;;;;;10.57;3.80;;;12.20;99.90;;;;;;5035156;28;20034;-38
2023/10/31 09:08:54;;;;;;;5.55;3.22;;;12.30;99.90;;;;;;5035181;28;20028;-37
2023/10/31 09:11:20;;;;;;;8.25;3.05;;;12.30;99.90;;;;;;5035565;28;20071;-39
2023/10/31 09:13:45;;;;;;;5.53;3.20;;;12.30;99.90;;;;;;5034728;28;20013;-37
2023/10/31 09:16:12;;;;;;;8.05;3.17;;;12.30;99.90;;;;;;5035037;28;20071;-38
2023/10/31 09:18:37;;;;;;;14.90;3.20;;;12.40;99.90;;;;;;5034951;28;20021;-38
2023/10/31 09:21:03;;;;;;;11.43;3.63;;;12.60;99.90;;;;;;5034887;28;20027;-41
2023/10/31 09:23:29;;;;;;;11.82;3.75;;;12.80;99.90;;;;;;5035159;28;20109;-39
2023/10/31 09:25:55;;;;;;;10.38;3.60;;;12.90;99.90;;;;;;5050126;28;20087;-38
2023/10/31 09:28:20;;;;;;;7.53;3.85;;;13.00;99.90;;;;;;5034718;28;20038;-38
2023/10/31 09:30:46;;;;;;;6.03;3.22;;;13.00;99.90;;;;;;5034888;28;20092;-39
2023/10/31 09:33:12;;;;;;;5.65;2.92;;;13.00;99.90;;;;;;5034855;28;20018;-38
2023/10/31 09:35:38;;;;;;;8.70;3.33;;;12.90;99.90;;;;;;5034990;28;20098;-38
2023/10/31 09:38:03;;;;;;;12.18;3.88;;;12.90;99.90;;;;;;5049815;28;20029;-38
2023/10/31 09:40:29;;;;;;;6.80;3.00;;;12.90;99.90;;;;;;5034556;28;20021;-38
2023/10/31 09:42:55;;;;;;;9.10;3.03;;;13.00;99.90;;;;;;5034189;28;20049;-37
2023/10/31 09:45:21;;;;;;;9.38;5.63;;;13.00;99.90;;;;;;5034489;28;20367;-38
2023/10/31 09:47:46;;;;;;;10.65;3.60;;;13.10;99.90;;;;;;5034396;28;20029;-38
2023/10/31 09:50:12;;;;;;;9.57;4.10;;;13.20;99.90;;;;;;5034620;28;20505;-36
2023/10/31 09:52:39;;;;;;;6.25;3.55;;;13.20;99.90;;;;;;5034272;28;20105;-36
2023/10/31 09:55:05;;;;;;;12.00;3.72;;;13.30;99.90;;;;;;5034175;28;20467;-37
2023/10/31 09:57:31;;;;;;;10.07;4.00;;;13.30;99.90;;;;;;5034212;28;20026;-37
2023/10/31 09:59:57;;;;;;;10.85;3.88;;;13.40;99.90;;;;;;5034513;28;20389;-37
2023/10/31 10:02:23;;;;;;;11.90;3.72;;;13.50;99.90;;;;;;5034177;28;20025;-37
2023/10/31 10:04:49;;;;;;;4.25;3.15;;;13.60;99.90;;;;;;5034106;28;20080;-37
2023/10/31 10:07:19;;;;;;;10.20;3.35;;;13.70;99.90;;;;;;5034039;28;20482;-39
2023/10/31 10:09:47;;;;;;;15.88;4.13;;;13.60;99.90;;;;;;5033967;28;20072;-36
2023/10/31 10:12:13;;;;;;;;;;;13.60;99.90;;;;;;5034293;28;20030;-37
2023/10/31 10:14:39;;;;;;;13.02;3.53;;;13.60;99.90;;;;;;5033930;28;19938;-36
2023/10/31 10:17:34;;;;;;;6.20;3.38;;;13.60;99.90;;;;;;5033848;28;20033;-36
2023/10/31 10:20:10;;;;;;;11.60;4.43;;;13.60;99.90;;;;;;5016796;28;20029;-36
2023/10/31 10:22:42;;;;;;;10.48;3.97;;;13.70;99.90;;;;;;5033812;28;20101;-36
2023/10/31 10:25:14;;;;;;;8.90;3.08;;;13.70;99.90;;;;;;5033056;28;20025;-36
2023/10/31 10:27:40;;;;;;;7.55;3.83;;;13.80;99.90;;;;;;5033743;28;20033;-36
2023/10/31 10:30:08;;;;;;;11.68;4.10;;;13.80;99.90;;;;;;5033643;28;20366;-37
2023/10/31 10:32:34;;;;;;;14.43;3.58;;;13.90;99.90;;;;;;5033486;28;20021;-36
2023/10/31 10:35:00;;;;;;;13.30;3.08;;;13.90;99.90;;;;;;5033554;28;20037;-36
2023/10/31 10:37:30;;;;;;;10.80;3.00;;;13.90;99.90;;;;;;5033684;28;20519;-36
2023/10/31 10:39:56;;;;;;;12.68;3.50;;;13.90;99.90;;;;;;5048697;28;20367;-37
2023/10/31 10:42:35;;;;;;;7.50;2.80;;;13.80;99.90;;;;;;5033273;28;20440;-37
2023/10/31 10:45:05;;;;;;;6.57;3.38;;;13.70;99.90;;;;;;5033321;28;20527;-37
2023/10/31 10:47:37;;;;;;;5.05;1.85;;;13.80;99.90;;;;;;5033392;28;20048;-36
2023/10/31 10:50:06;;;;;;;10.82;2.20;;;13.80;99.90;;;;;;5033557;28;20605;-36
2023/10/31 10:53:00;;;;;;;13.57;2.83;;;13.80;99.90;;;;;;5033155;28;20481;-39
2023/10/31 10:55:28;;;;;;;7.25;2.22;;;13.80;99.90;;;;;;5033171;28;20366;-41
2023/10/31 10:57:59;;;;;;;;;;;13.90;99.90;;;;;;5033529;28;20493;-38
2023/10/31 11:00:26;;;;;;;4.65;1.83;;;14.10;99.90;;;;;;5033167;28;20427;-36
2023/10/31 11:02:53;;;;;;;12.40;2.63;;;14.30;99.90;;;;;;5015535;28;20107;-37
2023/10/31 11:05:19;;;;;;;8.85;2.50;;;14.50;99.90;;;;;;5015352;28;20172;-34
2023/10/31 11:07:46;;;;;;;6.43;2.33;;;14.60;99.90;;;;;;5032694;28;20497;-36
2023/10/31 11:10:12;;;;;;;6.25;1.75;;;14.50;99.90;;;;;;5033003;28;20036;-38
2023/10/31 11:12:41;;;;;;;3.75;1.67;;;14.40;99.90;;;;;;5032783;28;20492;-37
2023/10/31 11:15:09;;;;;;;9.65;1.75;;;14.30;99.90;;;;;;5032934;28;20363;-37
2023/10/31 11:17:40;;;;;;;4.68;1.45;;;14.20;99.90;;;;;;5032816;28;20425;-37
2023/10/31 11:20:09;;;;;;;5.03;2.22;;;14.30;99.90;;;;;;5032920;28;20013;-36
2023/10/31 11:22:39;;;;;;;7.22;1.88;;;14.40;99.90;;;;;;5015141;28;20525;-37
2023/10/31 11:25:07;;;;;;;8.43;2.05;;;14.40;99.90;;;;;;5033059;28;20478;-38
2023/10/31 11:27:35;;;;;;;9.02;2.58;;;14.40;99.90;;;;;;5032860;28;20029;-37
2023/10/31 11:30:04;;;;;;;8.57;2.40;;;14.30;99.90;;;;;;5032760;28;20033;-37
2023/10/31 11:32:33;;;;;;;5.72;2.28;;;14.10;99.90;;;;;;5032667;28;20025;-36
2023/10/31 11:34:59;;;;;;;6.45;2.83;;;14.00;99.90;;;;;;5032656;28;20273;-36
2023/10/31 11:37:35;;;;;;;7.10;3.97;;;14.00;99.90;;;;;;5042386;28;20027;-37
2023/10/31 11:40:13;;;;;;;5.32;3.72;;;13.90;99.90;;;;;;5056698;28;20485;-37
2023/10/31 11:42:41;;;;;;;7.85;4.20;;;13.90;99.90;;;;;;5038694;28;20055;-37
2023/10/31 11:45:08;;;;;;;7.72;4.15;;;13.90;99.90;;;;;;5056651;28;20504;-36
2023/10/31 11:47:52;;;;;;;6.82;4.80;;;13.90;99.90;;;;;;5038804;28;20116;-52
2023/10/31 11:50:18;;;;;;;11.07;6.45;;;13.90;99.90;;;;;;5038768;28;20025;-52
2023/10/31 11:52:44;;;;;;;14.88;6.15;;;14.00;99.90;;;;;;5056683;28;20492;-54
2023/10/31 11:55:11;;;;;;;10.90;6.22;;;14.00;99.90;;;;;;5056673;28;20021;-51
2023/10/31 11:57:37;;;;;;;15.85;7.60;;;14.10;99.90;;;;;;5056485;28;20469;-50
2023/10/31 12:00:04;;;;;;;16.13;7.35;;;14.10;99.90;;;;;;5038497;28;20427;-52
2023/10/31 12:02:30;;;;;;;15.18;6.90;;;14.10;99.90;;;;;;5038958;28;20108;-53
2023/10/31 12:05:13;;;;;;;13.15;7.60;;;14.20;99.90;;;;;;5056290;28;20495;-50
2023/10/31 12:07:45;;;;;;;17.45;7.22;;;14.10;99.90;;;;;;5056578;28;20094;-51
2023/10/31 12:10:12;;;;;;;19.20;8.05;;;14.10;99.90;;;;;;5056516;28;20472;-52
2023/10/31 12:12:38;;;;;;;15.03;8.20;;;14.10;99.90;;;;;;5056172;28;20496;-52
2023/10/31 12:15:10;;;;;;;16.48;7.15;;;14.00;99.90;;;;;;5056146;28;20058;-56
2023/10/31 12:17:36;;;;;;;17.92;7.97;;;14.00;99.90;;;;;;5056089;28;20078;-53
2023/10/31 12:20:09;;;;;;;23.50;8.85;;;14.00;99.90;;;;;;5056033;28;20147;-53
2023/10/31 12:22:35;;;;;;;19.55;8.20;;;13.90;99.90;;;;;;5055979;28;20028;-50
2023/10/31 12:25:05;;;;;;;16.80;8.18;;;13.80;99.90;;;;;;5038256;28;20574;-51
2023/10/31 12:27:50;;;;;;;19.52;8.35;;;13.80;99.90;;;;;;5055925;28;20048;-52
2023/10/31 12:30:18;;;;;;;14.73;8.20;;;13.90;99.90;;;;;;5055862;28;20477;-52
2023/10/31 12:32:44;;;;;;;;;;;13.90;99.90;;;;;;5056426;28;20512;-47
2023/10/31 12:35:20;;;;;;;19.77;7.75;;;14.00;99.90;;;;;;5055739;28;19905;-51
2023/10/31 12:37:48;;;;;;;17.80;9.45;;;14.00;99.90;;;;;;5037706;28;20029;-49
2023/10/31 12:40:18;;;;;;;13.25;7.60;;;13.90;99.90;;;;;;5037769;28;20118;-50
2023/10/31 12:42:45;;;;;;;20.33;7.72;;;13.90;99.90;;;;;;5055368;28;20045;-52
2023/10/31 12:45:17;;;;;;;16.17;7.57;;;14.00;99.90;;;;;;5055605;28;20473;-52
2023/10/31 12:47:43;;;;;;;13.63;7.43;;;14.00;99.90;;;;;;5055449;28;20580;-53
2023/10/31 12:50:16;;;;;;;11.57;6.10;;;14.00;99.90;;;;;;5037097;28;20116;-51
2023/10/31 12:52:50;;;;;;;12.55;6.72;;;14.00;99.90;;;;;;5055345;28;20158;-52
2023/10/31 12:55:24;;;;;;;17.90;7.22;;;13.90;99.90;;;;;;5037851;28;20025;-48
2023/10/31 12:57:51;;;;;;;12.75;6.32;;;13.90;99.90;;;;;;5037416;28;20404;-52
2023/10/31 13:00:24;;;;;;;16.23;6.32;;;13.90;99.90;;;;;;5055517;28;20481;-53